createdAt,value
2022-08-30T00:00:51.746Z,13.50
2022-08-30T00:31:00.338Z,13.20
2022-08-30T01:01:10.508Z,12.80
2022-08-30T01:31:19.134Z,12.60
2022-08-30T02:01:29.646Z,12.40
2022-08-30T02:31:40.681Z,12.20
2022-08-30T03:01:49.197Z,12.00
2022-08-30T03:31:57.636Z,11.80
2022-08-30T04:02:09.804Z,11.60
2022-08-30T04:32:18.283Z,11.50
2022-08-30T05:02:27.728Z,11.60
2022-08-30T05:32:36.211Z,12.80
2022-08-30T06:02:45.372Z,13.80
2022-08-30T06:32:53.727Z,16.00
2022-08-30T07:03:02.735Z,17.60
2022-08-30T07:33:11.586Z,20.60
2022-08-30T08:03:20.163Z,33.10
2022-08-30T08:33:32.499Z,37.80
2022-08-30T09:33:56.361Z,37.70
2022-08-30T10:04:14.302Z,40.40
2022-08-30T10:34:40.889Z,36.50
2022-08-30T11:05:18.736Z,30.90
2022-08-30T11:35:48.503Z,27.50
2022-08-30T12:06:03.502Z,26.00
2022-08-30T12:36:16.096Z,25.80
2022-08-30T13:06:40.241Z,25.80
2022-08-30T13:36:53.414Z,25.70
2022-08-30T14:07:20.618Z,25.90
2022-08-30T14:37:37.542Z,25.60
2022-08-30T15:07:53.075Z,25.40
2022-08-30T15:38:02.485Z,24.60
2022-08-30T16:08:12.045Z,24.20
2022-08-30T16:38:26.443Z,23.40
2022-08-30T17:08:35.307Z,22.60
2022-08-30T17:38:44.781Z,21.70
2022-08-30T18:08:53.579Z,20.80
2022-08-30T18:39:02.138Z,19.80
2022-08-30T19:09:10.559Z,19.00
2022-08-30T19:39:19.241Z,18.10
2022-08-30T20:09:28.679Z,17.30
2022-08-30T20:39:38.387Z,17.00
2022-08-30T21:09:46.683Z,16.50
2022-08-30T21:39:55.529Z,16.20
2022-08-30T22:10:04.481Z,15.70
2022-08-30T22:40:13.697Z,15.20
2022-08-30T23:10:28.042Z,14.80
2022-08-30T23:40:48.937Z,14.90
